createdAt,value
2023-03-24T00:00:18.843Z,97244.09
2023-03-24T00:02:46.842Z,97258.75
2023-03-24T00:05:19.026Z,97269.16
2023-03-24T00:07:47.311Z,97233.47
2023-03-24T00:10:15.827Z,97247.28
2023-03-24T00:12:43.150Z,97243.03
2023-03-24T00:15:21.407Z,97257.31
2023-03-24T00:17:52.474Z,97252.06
2023-03-24T00:20:20.977Z,97255.25
2023-03-24T00:22:51.356Z,97255.59
2023-03-24T00:25:19.648Z,97266.34
2023-03-24T00:27:49.159Z,97263.25
2023-03-24T00:30:17.084Z,97272.13
2023-03-24T00:32:45.097Z,97259.56
2023-03-24T00:35:13.804Z,97268.22
2023-03-24T00:37:41.966Z,97273.88
2023-03-24T00:40:12.878Z,97249.78
2023-03-24T00:42:41.245Z,97252.91
2023-03-24T00:45:09.693Z,97244.00
2023-03-24T00:47:38.353Z,97241.53
2023-03-24T00:50:07.054Z,97242.25
2023-03-24T00:52:37.096Z,97238.47
2023-03-24T00:55:06.592Z,97242.38
2023-03-24T00:57:36.772Z,97242.75
2023-03-24T01:00:20.313Z,97238.50
2023-03-24T01:02:48.702Z,97231.22
2023-03-24T01:05:17.921Z,97236.63
2023-03-24T01:07:45.336Z,97239.75
2023-03-24T01:10:14.022Z,97233.19
2023-03-24T01:12:41.423Z,97230.75
2023-03-24T01:15:11.781Z,97232.28
2023-03-24T01:17:39.106Z,97230.09
2023-03-24T01:20:11.799Z,97234.44
2023-03-24T01:22:40.291Z,97225.22
2023-03-24T01:25:09.778Z,97229.13
2023-03-24T01:27:37.838Z,97232.31
2023-03-24T01:30:06.147Z,97225.81
2023-03-24T01:32:33.640Z,97218.94
2023-03-24T01:35:01.276Z,97228.97
2023-03-24T01:37:28.590Z,97221.63
2023-03-24T01:39:56.253Z,97223.50
2023-03-24T01:42:25.029Z,97220.00
2023-03-24T01:44:54.634Z,97226.56
2023-03-24T01:47:21.948Z,97223.13
2023-03-24T01:49:53.842Z,97215.84
2023-03-24T01:52:30.077Z,97222.84
2023-03-24T01:55:03.305Z,97222.06
2023-03-24T01:57:37.818Z,97216.72
2023-03-24T02:00:11.127Z,97211.00
2023-03-24T02:03:07.407Z,97209.50
2023-03-24T02:05:43.193Z,97204.81
2023-03-24T02:08:14.024Z,97209.06
2023-03-24T02:10:41.421Z,97209.78
2023-03-24T02:13:10.846Z,97202.56
2023-03-24T02:15:57.184Z,97202.59
2023-03-24T02:18:34.352Z,97204.44
2023-03-24T02:21:20.403Z,97195.94
2023-03-24T02:23:50.844Z,97199.81
2023-03-24T02:26:19.686Z,97193.31
2023-03-24T02:28:46.974Z,97209.16
2023-03-24T02:31:46.802Z,97196.09
2023-03-24T02:34:29.200Z,97191.91
2023-03-24T02:37:03.119Z,97190.00
2023-03-24T02:39:38.230Z,97188.94
2023-03-24T02:42:21.042Z,97188.94
2023-03-24T02:44:51.317Z,97185.53
2023-03-24T02:47:29.496Z,97183.63
2023-03-24T02:50:07.310Z,97190.97
2023-03-24T02:53:01.116Z,97194.84
2023-03-24T02:55:39.872Z,97188.63
2023-03-24T02:58:19.625Z,97197.13
2023-03-24T03:00:59.962Z,97180.97
2023-03-24T03:03:48.825Z,97190.72
2023-03-24T03:06:19.418Z,97188.47
2023-03-24T03:08:48.309Z,97166.56
2023-03-24T03:11:17.065Z,97183.59
2023-03-24T03:13:57.206Z,97177.84
2023-03-24T03:16:45.706Z,97182.09
2023-03-24T03:19:20.446Z,97179.06
2023-03-24T03:21:49.916Z,97187.97
2023-03-24T03:24:28.265Z,97186.84
2023-03-24T03:26:57.829Z,97192.72
2023-03-24T03:29:27.550Z,97199.75
2023-03-24T03:32:00.277Z,97202.81
2023-03-24T03:34:38.131Z,97188.72
2023-03-24T03:37:08.828Z,97185.47
2023-03-24T03:39:43.160Z,97180.16
2023-03-24T03:42:12.547Z,97194.53
2023-03-24T03:44:40.648Z,97187.56
2023-03-24T03:47:09.764Z,97191.81
2023-03-24T03:49:40.723Z,97199.91
2023-03-24T03:52:08.566Z,97204.81
2023-03-24T03:54:37.820Z,97205.00
2023-03-24T03:57:05.543Z,97190.69
2023-03-24T03:59:46.207Z,97182.75
2023-03-24T04:02:18.916Z,97175.75
2023-03-24T04:04:56.256Z,97183.53
2023-03-24T04:07:45.178Z,97183.25
2023-03-24T04:10:27.431Z,97178.59
2023-03-24T04:12:54.803Z,97184.59
2023-03-24T04:15:42.280Z,97172.19
2023-03-24T04:18:41.451Z,97175.09
2023-03-24T04:21:13.371Z,97192.13
2023-03-24T04:24:03.770Z,97167.63
2023-03-24T04:26:41.611Z,97182.97
2023-03-24T04:29:18.552Z,97171.81
2023-03-24T04:31:53.654Z,97182.75
2023-03-24T04:34:35.366Z,97180.66
2023-03-24T04:37:23.368Z,97183.78
2023-03-24T04:40:06.383Z,97184.25
2023-03-24T04:42:54.121Z,97178.16
2023-03-24T04:45:26.650Z,97173.13
2023-03-24T04:48:13.001Z,97184.09
2023-03-24T04:50:56.454Z,97184.59
2023-03-24T04:53:27.530Z,97183.47
2023-03-24T04:56:01.246Z,97171.16
2023-03-24T04:58:48.555Z,97181.94
2023-03-24T05:01:17.538Z,97177.63
2023-03-24T05:04:05.101Z,97178.00
2023-03-24T05:06:33.141Z,97173.16
2023-03-24T05:09:01.735Z,97177.94
2023-03-24T05:11:31.359Z,97177.22
2023-03-24T05:14:04.649Z,97183.16
2023-03-24T05:16:32.006Z,97165.69
2023-03-24T05:19:00.683Z,97175.72
2023-03-24T05:21:33.415Z,97165.38
2023-03-24T05:24:01.492Z,97168.28
2023-03-24T05:26:30.005Z,97170.69
2023-03-24T05:29:08.951Z,97177.56
2023-03-24T05:31:36.521Z,97159.19
2023-03-24T05:34:11.094Z,97171.22
2023-03-24T05:36:51.073Z,97158.50
2023-03-24T05:39:21.487Z,97153.97
2023-03-24T05:42:01.563Z,97156.03
2023-03-24T05:44:28.937Z,97151.72
2023-03-24T05:47:04.862Z,97168.66
2023-03-24T05:49:32.239Z,97161.59
2023-03-24T05:52:00.756Z,97155.28
2023-03-24T05:54:28.138Z,97159.84
2023-03-24T05:57:04.380Z,97148.69
2023-03-24T05:59:41.729Z,97169.16
2023-03-24T06:02:19.268Z,97159.78
2023-03-24T06:04:57.999Z,97148.88
2023-03-24T06:07:27.097Z,97154.91
2023-03-24T06:09:58.464Z,97162.22
2023-03-24T06:12:26.932Z,97145.47
2023-03-24T06:15:03.884Z,97147.22
2023-03-24T06:17:32.788Z,97160.63
2023-03-24T06:20:16.363Z,97147.66
2023-03-24T06:22:52.223Z,97148.06
2023-03-24T06:25:28.084Z,97148.22
2023-03-24T06:28:12.535Z,97149.41
2023-03-24T06:30:44.031Z,97165.59
2023-03-24T06:33:13.970Z,97140.50
2023-03-24T06:35:44.146Z,97166.28
2023-03-24T06:38:15.634Z,97161.94
2023-03-24T06:40:44.636Z,97155.03
2023-03-24T06:43:12.166Z,97163.59
2023-03-24T06:45:41.974Z,97154.38
2023-03-24T06:48:14.355Z,97150.97
2023-03-24T06:50:42.260Z,97157.22
2023-03-24T06:53:11.305Z,97147.78
2023-03-24T06:55:39.718Z,97138.66
2023-03-24T06:58:08.822Z,97123.75
2023-03-24T07:01:02.384Z,97127.13
2023-03-24T07:03:33.841Z,97138.03
2023-03-24T07:06:23.167Z,97133.47
2023-03-24T07:08:57.071Z,97126.88
2023-03-24T07:11:27.796Z,97132.78
2023-03-24T07:13:58.681Z,97130.72
2023-03-24T07:16:27.955Z,97131.03
2023-03-24T07:19:14.753Z,97141.81
2023-03-24T07:21:50.298Z,97123.47
2023-03-24T07:24:24.881Z,97128.63
2023-03-24T07:27:00.968Z,97125.94
2023-03-24T07:29:32.276Z,97123.50
2023-03-24T07:32:44.161Z,97138.56
2023-03-24T07:35:15.571Z,97123.47
2023-03-24T07:37:42.868Z,97131.34
2023-03-24T07:40:13.861Z,97121.00
2023-03-24T07:42:42.459Z,97120.81
2023-03-24T07:45:31.214Z,97117.59
2023-03-24T07:49:03.170Z,97128.00
2023-03-24T07:51:11.001Z,97132.28
2023-03-24T07:54:07.500Z,97123.69
2023-03-24T07:56:42.772Z,97131.25
2023-03-24T07:59:12.565Z,97130.75
2023-03-24T08:01:58.465Z,97129.56
2023-03-24T08:04:38.348Z,97143.19
2023-03-24T08:07:35.299Z,97131.53
2023-03-24T08:10:03.565Z,97135.41
2023-03-24T08:12:31.013Z,97130.28
2023-03-24T08:14:58.417Z,97129.84
2023-03-24T08:17:25.767Z,97130.97
2023-03-24T08:20:00.197Z,97118.13
2023-03-24T08:22:28.671Z,97121.78
2023-03-24T08:24:56.067Z,97126.59
2023-03-24T08:27:23.720Z,97119.63
2023-03-24T08:29:51.253Z,97133.19
2023-03-24T08:32:18.457Z,97131.03
2023-03-24T08:34:45.724Z,97126.38
2023-03-24T08:37:13.235Z,97123.06
2023-03-24T08:39:40.485Z,97127.97
2023-03-24T08:42:07.972Z,97118.53
2023-03-24T08:44:35.359Z,97116.00
2023-03-24T08:47:02.695Z,97122.97
2023-03-24T08:49:29.866Z,97135.47
2023-03-24T08:51:57.156Z,97125.47
2023-03-24T08:54:25.038Z,97122.22
2023-03-24T08:56:52.478Z,97122.06
2023-03-24T08:59:19.829Z,97134.06
2023-03-24T09:01:47.202Z,97124.56
2023-03-24T09:04:14.526Z,97136.84
2023-03-24T09:07:03.058Z,97123.16
2023-03-24T09:09:30.819Z,97125.81
2023-03-24T09:11:57.991Z,97129.34
2023-03-24T09:14:25.353Z,97144.13
2023-03-24T09:16:52.842Z,97119.31
2023-03-24T09:19:20.127Z,97128.81
2023-03-24T09:21:48.270Z,97130.75
2023-03-24T09:24:15.632Z,97121.13
2023-03-24T09:26:42.915Z,97119.31
2023-03-24T09:29:10.218Z,97119.63
2023-03-24T09:31:37.601Z,97128.66
2023-03-24T09:34:04.905Z,97136.31
2023-03-24T09:36:32.136Z,97115.03
2023-03-24T09:38:59.367Z,97127.25
2023-03-24T09:41:28.598Z,97121.44
2023-03-24T09:44:01.053Z,97121.28
2023-03-24T09:46:41.833Z,97107.34
2023-03-24T09:49:13.866Z,97103.34
2023-03-24T09:51:45.549Z,97114.69
2023-03-24T09:54:31.712Z,97123.28
2023-03-24T09:56:59.720Z,97105.78
2023-03-24T09:59:33.277Z,97105.19
2023-03-24T10:02:00.799Z,97116.75
2023-03-24T10:04:29.213Z,97097.16
2023-03-24T10:07:23.856Z,97105.22
2023-03-24T10:09:56.948Z,97114.16
2023-03-24T10:12:40.318Z,97094.78
2023-03-24T10:15:07.815Z,97110.53
2023-03-24T10:17:35.084Z,97105.56
2023-03-24T10:20:12.313Z,97101.72
2023-03-24T10:22:58.078Z,97093.56
2023-03-24T10:25:41.415Z,97106.78
2023-03-24T10:28:23.583Z,97105.63
2023-03-24T10:30:51.748Z,97100.13
2023-03-24T10:33:19.048Z,97097.00
2023-03-24T10:35:51.836Z,97102.94
2023-03-24T10:38:20.535Z,97094.91
2023-03-24T10:40:48.376Z,97099.78
2023-03-24T10:43:19.416Z,97101.19
2023-03-24T10:45:52.164Z,97104.47
2023-03-24T10:48:34.942Z,97096.91
2023-03-24T10:51:02.969Z,97100.78
2023-03-24T10:53:30.151Z,97100.44
2023-03-24T10:55:57.705Z,97091.69
2023-03-24T10:58:30.671Z,97100.34
2023-03-24T11:00:59.807Z,97094.78
2023-03-24T11:03:30.004Z,97100.47
2023-03-24T11:06:01.750Z,97095.13
2023-03-24T11:08:29.421Z,97108.91
2023-03-24T11:10:56.672Z,97094.22
2023-03-24T11:13:25.358Z,97119.53
2023-03-24T11:15:53.868Z,97102.56
2023-03-24T11:18:21.404Z,97112.19
2023-03-24T11:21:01.197Z,97101.69
2023-03-24T11:23:32.719Z,97105.09
2023-03-24T11:26:03.154Z,97110.75
2023-03-24T11:28:35.729Z,97102.94
2023-03-24T11:31:06.786Z,97108.78
2023-03-24T11:33:36.739Z,97108.66
2023-03-24T11:36:36.116Z,97105.47
2023-03-24T11:39:03.964Z,97113.13
2023-03-24T11:41:31.389Z,97116.97
2023-03-24T11:44:17.170Z,97120.44
2023-03-24T11:46:46.412Z,97122.59
2023-03-24T11:49:17.328Z,97121.53
2023-03-24T11:51:46.865Z,97122.69
2023-03-24T11:54:16.350Z,97111.09
2023-03-24T11:56:45.644Z,97114.31
2023-03-24T11:59:13.086Z,97111.38
2023-03-24T12:01:43.614Z,97095.94
2023-03-24T12:04:27.630Z,97095.78
2023-03-24T12:07:03.198Z,97101.09
2023-03-24T12:09:39.300Z,97093.53
2023-03-24T12:12:29.530Z,97089.69
2023-03-24T12:15:14.413Z,97110.38
2023-03-24T12:17:48.305Z,97096.00
2023-03-24T12:20:24.831Z,97096.75
2023-03-24T12:23:11.708Z,97101.53
2023-03-24T12:25:57.937Z,97085.25
2023-03-24T12:28:53.017Z,97093.63
2023-03-24T12:31:23.941Z,97092.06
2023-03-24T12:34:04.388Z,97103.84
2023-03-24T12:36:42.837Z,97104.03
2023-03-24T12:39:11.804Z,97089.53
2023-03-24T12:42:02.293Z,97091.75
2023-03-24T12:44:48.996Z,97093.44
2023-03-24T12:47:16.400Z,97093.28
2023-03-24T12:50:02.294Z,97093.28
2023-03-24T12:52:36.605Z,97085.59
2023-03-24T12:55:07.437Z,97086.09
2023-03-24T12:57:38.388Z,97090.19
2023-03-24T13:00:16.593Z,97085.50
2023-03-24T13:02:53.887Z,97083.38
2023-03-24T13:05:24.671Z,97089.34
2023-03-24T13:07:55.572Z,97091.09
2023-03-24T13:10:27.617Z,97077.91
2023-03-24T13:12:54.912Z,97069.50
2023-03-24T13:15:31.448Z,97080.06
2023-03-24T13:18:09.131Z,97081.47
2023-03-24T13:20:45.139Z,97074.91
2023-03-24T13:23:15.274Z,97062.59
2023-03-24T13:25:51.835Z,97060.03
2023-03-24T13:28:24.575Z,97057.09
2023-03-24T13:30:52.160Z,97061.72
2023-03-24T13:33:22.460Z,97070.41
2023-03-24T13:36:05.096Z,97055.03
2023-03-24T13:38:44.252Z,97067.63
2023-03-24T13:41:12.489Z,97060.56
2023-03-24T13:43:46.144Z,97069.16
2023-03-24T13:46:14.267Z,97063.50
2023-03-24T13:48:43.587Z,97064.25
2023-03-24T13:51:19.957Z,97069.72
2023-03-24T13:53:52.389Z,97060.09
2023-03-24T13:56:24.846Z,97066.22
2023-03-24T13:58:58.236Z,97064.25
2023-03-24T14:01:33.987Z,97072.06
2023-03-24T14:04:19.853Z,97064.19
2023-03-24T14:06:51.551Z,97066.16
2023-03-24T14:09:22.332Z,97071.94
2023-03-24T14:11:51.719Z,97063.44
2023-03-24T14:14:21.344Z,97061.53
2023-03-24T14:16:57.834Z,97050.44
2023-03-24T14:19:26.854Z,97056.53
2023-03-24T14:21:58.556Z,97054.63
2023-03-24T14:24:28.432Z,97055.53
2023-03-24T14:26:56.237Z,97044.09
2023-03-24T14:29:38.190Z,97048.25
2023-03-24T14:34:37.972Z,97051.25
2023-03-24T14:37:08.750Z,97043.56
2023-03-24T14:39:46.964Z,97044.03
2023-03-24T14:42:26.247Z,97040.13
2023-03-24T14:44:54.255Z,97042.25
2023-03-24T14:47:22.570Z,97061.25
2023-03-24T14:49:52.158Z,97060.13
2023-03-24T14:52:27.933Z,97063.69
2023-03-24T14:54:58.460Z,97061.78
2023-03-24T14:57:56.638Z,97061.44
2023-03-24T15:00:30.198Z,97046.84
2023-03-24T15:03:11.673Z,97060.13
2023-03-24T15:05:39.188Z,97058.84
2023-03-24T15:08:07.934Z,97061.44
2023-03-24T15:10:43.879Z,97065.81
2023-03-24T15:13:26.736Z,97054.28
2023-03-24T15:15:54.162Z,97046.22
2023-03-24T15:18:24.143Z,97060.69
2023-03-24T15:20:51.946Z,97057.47
2023-03-24T15:23:23.540Z,97052.06
2023-03-24T15:25:52.708Z,97050.88
2023-03-24T15:28:24.682Z,97047.72
2023-03-24T15:30:52.064Z,97052.50
2023-03-24T15:33:19.444Z,97060.22
2023-03-24T15:35:46.903Z,97050.59
2023-03-24T15:38:22.117Z,97062.19
2023-03-24T15:40:54.505Z,97062.50
2023-03-24T15:43:22.598Z,97058.91
2023-03-24T15:46:01.084Z,97065.09
2023-03-24T15:48:38.163Z,97058.19
2023-03-24T15:51:07.087Z,97055.91
2023-03-24T15:53:34.360Z,97052.06
2023-03-24T15:56:03.674Z,97052.22
2023-03-24T15:58:34.784Z,97050.78
2023-03-24T16:01:03.189Z,97047.13
2023-03-24T16:03:31.101Z,97046.97
2023-03-24T16:05:58.422Z,97047.47
2023-03-24T16:08:31.093Z,97042.78
2023-03-24T16:11:05.288Z,97049.72
2023-03-24T16:13:32.507Z,97041.97
2023-03-24T16:16:15.495Z,97030.41
2023-03-24T16:18:44.191Z,97031.22
2023-03-24T16:21:16.222Z,97023.22
2023-03-24T16:23:44.100Z,97026.09
2023-03-24T16:26:16.133Z,97023.16
2023-03-24T16:28:44.009Z,97011.44
2023-03-24T16:31:39.573Z,97004.81
2023-03-24T16:45:23.870Z,97016.22
2023-03-24T16:47:51.949Z,97018.59
2023-03-24T16:50:32.008Z,97007.75
2023-03-24T16:52:59.609Z,97009.66
2023-03-24T16:55:27.159Z,97005.00
2023-03-24T16:57:54.456Z,97008.50
2023-03-24T17:00:22.874Z,97004.34
2023-03-24T17:02:50.858Z,97001.59
2023-03-24T17:05:25.988Z,97009.25
2023-03-24T17:07:53.957Z,97007.78
2023-03-24T17:10:24.009Z,97007.81
2023-03-24T17:12:53.200Z,97012.84
2023-03-24T17:15:22.029Z,97014.00
2023-03-24T17:17:49.531Z,97012.44
2023-03-24T17:20:19.729Z,97009.38
2023-03-24T17:22:48.575Z,97015.97
2023-03-24T17:25:17.757Z,97016.38
2023-03-24T17:27:45.600Z,97014.41
2023-03-24T17:30:18.281Z,97004.75
2023-03-24T17:32:48.116Z,96999.38
2023-03-24T17:35:17.055Z,97006.44
2023-03-24T17:37:48.235Z,97004.41
2023-03-24T17:40:17.778Z,97001.34
2023-03-24T17:42:48.422Z,96995.19
2023-03-24T17:45:17.313Z,96994.03
2023-03-24T17:47:45.344Z,96992.47
2023-03-24T17:50:13.121Z,96986.25
2023-03-24T17:52:43.477Z,96987.00
2023-03-24T17:55:11.632Z,96989.34
2023-03-24T17:57:39.829Z,96992.81
2023-03-24T18:00:10.606Z,96987.41
2023-03-24T18:02:41.330Z,96986.25
2023-03-24T18:05:09.158Z,96990.88
2023-03-24T18:07:36.657Z,96988.56
2023-03-24T18:10:04.801Z,96998.63
2023-03-24T18:12:44.865Z,96991.38
2023-03-24T18:15:14.502Z,96988.69
2023-03-24T18:17:42.075Z,96991.03
2023-03-24T18:20:15.044Z,96984.47
2023-03-24T18:22:42.506Z,96984.47
2023-03-24T18:25:10.880Z,96989.94
2023-03-24T18:27:39.221Z,96985.78
2023-03-24T18:30:07.893Z,96986.19
2023-03-24T18:32:36.179Z,96993.91
2023-03-24T18:35:05.312Z,96985.00
2023-03-24T18:37:32.527Z,96984.59
2023-03-24T18:40:02.466Z,96984.19
2023-03-24T18:42:30.673Z,96980.31
2023-03-24T18:44:57.924Z,96983.41
2023-03-24T18:47:25.351Z,96981.47
2023-03-24T18:49:54.838Z,96979.56
2023-03-24T18:52:22.118Z,96990.41
2023-03-24T18:54:49.548Z,96980.38
2023-03-24T18:57:17.156Z,96981.13
2023-03-24T18:59:44.492Z,96976.13
2023-03-24T19:02:11.919Z,96980.38
2023-03-24T19:04:39.285Z,96986.59
2023-03-24T19:07:08.492Z,96980.38
2023-03-24T19:09:36.119Z,96977.25
2023-03-24T19:12:03.409Z,96978.06
2023-03-24T19:14:31.930Z,96982.66
2023-03-24T19:17:02.052Z,96978.41
2023-03-24T19:19:31.885Z,96986.53
2023-03-24T19:21:59.313Z,96977.66
2023-03-24T19:24:26.664Z,96983.88
2023-03-24T19:26:54.508Z,96973.84
2023-03-24T19:29:21.834Z,96975.81
2023-03-24T19:31:49.737Z,96973.91
2023-03-24T19:34:18.099Z,96970.84
2023-03-24T19:36:47.660Z,96966.19
2023-03-24T19:39:18.316Z,96965.03
2023-03-24T19:41:46.113Z,96956.16
2023-03-24T19:44:13.458Z,96954.59
2023-03-24T19:46:40.883Z,96950.38
2023-03-24T19:49:08.696Z,96959.66
2023-03-24T19:51:36.081Z,96959.69
2023-03-24T19:54:03.545Z,96956.63
2023-03-24T19:56:31.292Z,96956.63
2023-03-24T20:00:44.777Z,96968.66
2023-03-24T20:02:30.975Z,96963.25
2023-03-24T20:04:59.325Z,96971.00
2023-03-24T20:07:26.923Z,96961.72
2023-03-24T20:09:54.245Z,96964.81
2023-03-24T20:12:21.531Z,96970.19
2023-03-24T20:14:48.815Z,96963.66
2023-03-24T20:17:20.403Z,96960.97
2023-03-24T20:19:48.373Z,96961.34
2023-03-24T20:22:16.207Z,96954.81
2023-03-24T20:24:44.734Z,96949.03
2023-03-24T20:27:11.979Z,96951.34
2023-03-24T20:29:39.988Z,96957.53
2023-03-24T20:32:10.312Z,96945.19
2023-03-24T20:34:39.001Z,96950.22
2023-03-24T20:37:06.762Z,96945.56
2023-03-24T20:39:34.590Z,96949.84
2023-03-24T20:42:01.880Z,96955.66
2023-03-24T20:44:29.250Z,96952.53
2023-03-24T20:47:01.057Z,96957.56
2023-03-24T20:49:28.473Z,96950.63
2023-03-24T20:51:56.655Z,96951.41
2023-03-24T20:54:24.004Z,96944.09
2023-03-24T20:56:52.678Z,96950.25
2023-03-24T20:59:20.178Z,96943.28
2023-03-24T21:01:48.918Z,96939.81
2023-03-24T21:04:17.549Z,96934.03
2023-03-24T21:06:45.437Z,96930.16
2023-03-24T21:09:13.457Z,96929.03
2023-03-24T21:11:41.021Z,96928.25
2023-03-24T21:14:08.246Z,96936.41
2023-03-24T21:16:37.894Z,96934.06
2023-03-24T21:19:05.410Z,96936.75
2023-03-24T21:21:32.799Z,96937.50
2023-03-24T21:24:00.736Z,96934.00
2023-03-24T21:26:28.257Z,96923.19
2023-03-24T21:28:55.490Z,96925.53
2023-03-24T21:31:27.640Z,96920.91
2023-03-24T21:33:56.221Z,96915.94
2023-03-24T21:36:25.097Z,96912.47
2023-03-24T21:38:54.298Z,96909.00
2023-03-24T21:41:21.922Z,96914.81
2023-03-24T21:43:51.512Z,96914.06
2023-03-24T21:46:22.121Z,96907.13
2023-03-24T21:48:53.164Z,96914.44
2023-03-24T21:51:21.713Z,96908.28
2023-03-24T21:53:49.021Z,96905.94
2023-03-24T21:56:16.459Z,96903.66
2023-03-24T21:58:43.701Z,96907.13
2023-03-24T22:01:11.252Z,96899.03
2023-03-24T22:03:38.591Z,96897.47
2023-03-24T22:06:06.322Z,96898.25
2023-03-24T22:08:33.654Z,96886.28
2023-03-24T22:11:04.461Z,96894.78
2023-03-24T22:13:32.426Z,96894.03
2023-03-24T22:16:00.848Z,96888.22
2023-03-24T22:18:29.626Z,96887.84
2023-03-24T22:20:57.974Z,96877.03
2023-03-24T22:23:25.272Z,96887.06
2023-03-24T22:25:53.187Z,96877.81
2023-03-24T22:28:20.782Z,96875.13
2023-03-24T22:30:48.007Z,96868.19
2023-03-24T22:33:15.737Z,96868.59
2023-03-24T22:35:43.008Z,96867.00
2023-03-24T22:38:15.144Z,96867.03
2023-03-24T22:40:43.402Z,96858.56
2023-03-24T22:43:10.765Z,96846.59
2023-03-24T22:45:38.024Z,96851.22
2023-03-24T22:48:05.387Z,96852.75
2023-03-24T22:50:32.713Z,96848.13
2023-03-24T22:52:59.956Z,96846.19
2023-03-24T22:55:27.513Z,96844.28
2023-03-24T22:57:54.772Z,96848.53
2023-03-24T23:00:22.193Z,96835.78
2023-03-24T23:02:49.587Z,96844.28
2023-03-24T23:05:16.896Z,96842.75
2023-03-24T23:07:44.436Z,96842.38
2023-03-24T23:10:13.167Z,96831.19
2023-03-24T23:12:40.484Z,96833.88
2023-03-24T23:15:08.208Z,96830.41
2023-03-24T23:17:35.755Z,96823.47
2023-03-24T23:20:06.889Z,96820.41
2023-03-24T23:22:34.147Z,96822.69
2023-03-24T23:25:02.815Z,96813.44
2023-03-24T23:27:33.711Z,96815.00
2023-03-24T23:30:01.529Z,96811.53
2023-03-24T23:32:28.837Z,96807.69
2023-03-24T23:34:56.066Z,96810.78
2023-03-24T23:37:23.328Z,96808.06
2023-03-24T23:39:51.420Z,96803.06
2023-03-24T23:42:18.728Z,96804.22
2023-03-24T23:44:46.071Z,96806.91
2023-03-24T23:47:13.435Z,96804.19
2023-03-24T23:49:41.969Z,96809.97
2023-03-24T23:52:09.224Z,96806.50
2023-03-24T23:54:36.565Z,96804.19
2023-03-24T23:57:03.984Z,96799.94
2023-03-24T23:59:31.302Z,96804.56
